Aurora, Kentucky
Current Conditions -  °F | °C
As of 2:15 AM on Monday 26 Jan 2015 (Local Time) from KCEY Reporting Station
Overcast Overcast  
Wind Chill: 23°   Ceiling: 1000
Heat Index: 34°   Visibility: 10mi
Dew Point: 32°   Wind: 18mph
Humidity: 93%   Direction: 330°NNW
Pressure: 29.93"   Gusts: 25mph
Location:  36.7761°N, 88.2528°W
Report Text: KCEY 260815Z AUTO 33016G22KT 10SM OVC010 01/00 A2993 RMK AO1
Loading
Personal Weather Stations






























Interactive Weather Map New forecast layout! Learn more

10-Day Weather Forecast

Advertisements
Track Severe Weather on mobile